Narowal Weather



Narowal's Current Weather

Temprature 24.94o broken clouds

broken clouds

Rain: 0 %

Min Temprature24.94o
Max Temprature24.94o
Humidity80
Wind Speed2.04 m/h
Sun Rise05:50:51
Sun Set17:52:59
Current Time: 26-Sep-2022 09:00:05
Lat/Lon: 32.1, 74.8833




Narowal's Geo Location



Narowal's Weather Forecast

Time Overall Temp Min Temp Max Temp Humidity Wind Speed Rain
26-Sep-2022 (Mon)
11:00:00 broken clouds 25.950 25.950 27.970 79 1.12 m/h 0 %
14:00:00 few clouds 28.240 28.240 29.890 67 2.09 m/h 0 %
17:00:00 clear sky 28.330 28.330 28.330 67 1.44 m/h 0 %
20:00:00 clear sky 24.790 24.790 24.790 69 0.15 m/h 0 %
23:00:00 clear sky 23.620 23.620 23.620 72 1.65 m/h 0 %
27-Sep-2022 (Tue)
02:00:00 clear sky 22.350 22.350 22.350 76 1.77 m/h 0 %
05:00:00 clear sky 21.860 21.860 21.860 77 1.24 m/h 0 %
08:00:00 clear sky 24.840 24.840 24.840 70 0.97 m/h 0 %
11:00:00 clear sky 29.770 29.770 29.770 57 0.44 m/h 0 %
14:00:00 clear sky 31.540 31.540 31.540 50 1.13 m/h 0 %
17:00:00 clear sky 29.860 29.860 29.860 61 1.54 m/h 0 %
20:00:00 clear sky 25.960 25.960 25.960 69 2.31 m/h 0 %
23:00:00 clear sky 24.430 24.430 24.430 76 2.18 m/h 0 %
28-Sep-2022 (Wed)
02:00:00 clear sky 23.370 23.370 23.370 82 1.6 m/h 0 %
05:00:00 clear sky 23.030 23.030 23.030 84 1.74 m/h 0 %
08:00:00 clear sky 25.800 25.800 25.800 74 1.9 m/h 0 %
11:00:00 clear sky 30.210 30.210 30.210 59 1.51 m/h 0 %
14:00:00 clear sky 32.360 32.360 32.360 50 0.89 m/h 0 %
17:00:00 clear sky 30.610 30.610 30.610 60 1.39 m/h 0 %
20:00:00 clear sky 26.810 26.810 26.810 68 2.6 m/h 0 %
23:00:00 clear sky 25.210 25.210 25.210 74 1.87 m/h 0 %
29-Sep-2022 (Thu)
02:00:00 clear sky 24.280 24.280 24.280 79 1.58 m/h 0 %
05:00:00 clear sky 23.450 23.450 23.450 82 1.92 m/h 0 %
08:00:00 clear sky 26.040 26.040 26.040 73 2.09 m/h 0 %
11:00:00 clear sky 30.710 30.710 30.710 57 1.26 m/h 0 %
14:00:00 clear sky 33.020 33.020 33.020 47 0.28 m/h 0 %
17:00:00 clear sky 31.150 31.150 31.150 58 1.33 m/h 0 %
20:00:00 clear sky 27.430 27.430 27.430 65 2.28 m/h 0 %
23:00:00 clear sky 25.940 25.940 25.940 70 1.53 m/h 0 %
30-Sep-2022 (Fri)
02:00:00 clear sky 24.850 24.850 24.850 75 1.03 m/h 0 %
05:00:00 clear sky 23.700 23.700 23.700 81 2.22 m/h 0 %
08:00:00 clear sky 25.820 25.820 25.820 71 2.4 m/h 0 %
11:00:00 clear sky 30.490 30.490 30.490 56 1.66 m/h 0 %
14:00:00 clear sky 33.140 33.140 33.140 45 1.1 m/h 0 %
17:00:00 clear sky 31.120 31.120 31.120 55 1.66 m/h 0 %
20:00:00 clear sky 27.210 27.210 27.210 64 2.48 m/h 0 %
23:00:00 clear sky 25.700 25.700 25.700 70 2.36 m/h 0 %
01-Oct-2022 (Sat)
02:00:00 clear sky 24.410 24.410 24.410 76 1.61 m/h 0 %
05:00:00 clear sky 23.750 23.750 23.750 78 1.51 m/h 0 %
08:00:00 clear sky 26.390 26.390 26.390 69 1.87 m/h 0 %

Famous Cities (61)